createdAt,value
2019-05-12T00:02:29.564Z,1.17
2019-05-12T00:05:05.904Z,1.40
2019-05-12T00:07:45.101Z,1.30
2019-05-12T00:10:24.895Z,1.45
2019-05-12T00:13:04.121Z,1.40
2019-05-12T00:15:41.846Z,1.40
2019-05-12T00:18:19.408Z,1.60
2019-05-12T00:20:59.491Z,1.70
2019-05-12T00:23:38.464Z,1.57
2019-05-12T00:26:20.023Z,1.35
2019-05-12T00:28:58.789Z,1.40
2019-05-12T00:31:38.265Z,1.45
2019-05-12T00:34:18.209Z,1.25
2019-05-12T00:36:57.737Z,1.17
2019-05-12T00:39:38.206Z,1.40
2019-05-12T00:42:18.409Z,1.40
2019-05-12T00:44:58.418Z,1.70
2019-05-12T00:47:38.635Z,1.32
2019-05-12T00:50:14.945Z,1.25
2019-05-12T00:52:52.966Z,1.60
2019-05-12T00:55:30.703Z,1.40
2019-05-12T00:58:08.703Z,1.20
2019-05-12T01:00:48.243Z,1.40
2019-05-12T01:03:28.066Z,1.50
2019-05-12T01:06:08.718Z,1.10
2019-05-12T01:08:48.275Z,1.50
2019-05-12T01:11:25.069Z,1.30
2019-05-12T01:14:04.332Z,1.57
2019-05-12T01:16:41.898Z,1.30
2019-05-12T01:20:08.836Z,1.12
2019-05-12T01:22:50.667Z,1.10
2019-05-12T01:25:31.221Z,1.32
2019-05-12T01:28:12.119Z,1.25
2019-05-12T01:30:50.312Z,1.30
2019-05-12T01:33:27.940Z,1.07
2019-05-12T01:36:03.194Z,1.05
2019-05-12T01:39:29.523Z,0.90
2019-05-12T01:42:54.626Z,1.00
2019-05-12T01:46:01.366Z,0.80
2019-05-12T01:49:08.411Z,1.15
2019-05-12T01:52:33.419Z,1.40
2019-05-12T01:55:58.685Z,1.20
2019-05-12T01:59:23.851Z,0.80
2019-05-12T02:02:49.295Z,1.20
2019-05-12T02:06:14.140Z,1.10
2019-05-12T02:09:39.420Z,0.93
2019-05-12T02:13:04.149Z,1.20
2019-05-12T02:16:13.834Z,2.02
2019-05-12T02:18:51.332Z,2.42
2019-05-12T02:21:27.962Z,1.72
2019-05-12T02:24:07.807Z,1.30
2019-05-12T02:26:48.520Z,5.30
2019-05-12T02:29:25.417Z,1.00
2019-05-12T02:32:05.562Z,0.90
2019-05-12T02:34:45.738Z,2.67
2019-05-12T02:37:26.036Z,3.70
2019-05-12T02:39:58.884Z,1.05
2019-05-12T02:42:38.131Z,12.20
2019-05-12T02:45:15.409Z,1.10
2019-05-12T02:47:49.804Z,4.95
2019-05-12T02:50:35.740Z,1.22
2019-05-12T02:53:15.994Z,0.93
2019-05-12T02:55:55.612Z,0.90
2019-05-12T02:58:38.092Z,1.65
2019-05-12T03:01:16.400Z,0.90
2019-05-12T03:03:58.197Z,1.40
2019-05-12T03:06:36.059Z,1.17
2019-05-12T03:09:15.123Z,1.25
2019-05-12T03:11:56.775Z,1.05
2019-05-12T03:14:40.233Z,3.83
2019-05-12T03:17:15.318Z,2.08
2019-05-12T03:19:55.685Z,1.65
2019-05-12T03:22:35.037Z,1.35
2019-05-12T03:25:19.855Z,1.10
2019-05-12T03:27:54.314Z,1.85
2019-05-12T03:30:30.403Z,0.85
2019-05-12T03:33:11.821Z,1.00
2019-05-12T03:35:53.170Z,3.83
2019-05-12T03:38:27.952Z,1.77
2019-05-12T03:41:05.879Z,2.08
2019-05-12T03:43:44.820Z,2.47
2019-05-12T03:46:24.853Z,2.60
2019-05-12T03:49:05.276Z,0.80
2019-05-12T03:51:45.397Z,2.80
2019-05-12T03:54:24.166Z,0.88
2019-05-12T03:56:57.937Z,0.90
2019-05-12T03:59:35.576Z,1.52
2019-05-12T04:02:10.978Z,1.05
2019-05-12T04:04:48.401Z,2.80
2019-05-12T04:07:26.080Z,2.17
2019-05-12T04:10:01.254Z,1.00
2019-05-12T04:12:36.334Z,1.00
2019-05-12T04:15:15.231Z,0.90
2019-05-12T04:17:54.521Z,1.07
2019-05-12T04:20:35.742Z,14.60
2019-05-12T04:23:08.859Z,1.62
2019-05-12T04:25:53.998Z,2.60
2019-05-12T04:28:27.929Z,0.88
2019-05-12T04:31:05.706Z,0.90
2019-05-12T04:33:45.340Z,0.90
2019-05-12T04:36:25.010Z,0.90
2019-05-12T04:39:00.654Z,1.00
2019-05-12T04:41:38.131Z,1.00
2019-05-12T04:44:16.058Z,1.00
2019-05-12T04:46:55.685Z,1.10
2019-05-12T04:49:36.410Z,1.40
2019-05-12T04:52:15.561Z,0.90
2019-05-12T04:54:55.263Z,1.15
2019-05-12T04:57:34.659Z,0.90
2019-05-12T05:00:10.670Z,1.12
2019-05-12T05:02:48.094Z,1.50
2019-05-12T05:05:25.717Z,1.05
2019-05-12T05:08:00.817Z,0.95
2019-05-12T05:10:39.467Z,1.50
2019-05-12T05:13:17.300Z,1.22
2019-05-12T05:15:57.064Z,1.20
2019-05-12T05:18:34.676Z,0.93
2019-05-12T05:21:14.110Z,0.82
2019-05-12T05:23:49.303Z,0.95
2019-05-12T05:26:28.386Z,0.95
2019-05-12T05:29:06.150Z,1.00
2019-05-12T05:31:44.214Z,1.07
2019-05-12T05:34:23.615Z,1.07
2019-05-12T05:37:01.513Z,1.20
2019-05-12T05:39:47.617Z,1.00
2019-05-12T05:42:16.355Z,1.35
2019-05-12T05:44:54.295Z,0.90
2019-05-12T05:47:33.622Z,1.10
2019-05-12T05:50:13.383Z,1.10
2019-05-12T05:52:50.658Z,1.10
2019-05-12T05:55:25.884Z,0.90
2019-05-12T05:58:07.753Z,1.07
2019-05-12T06:00:43.474Z,0.90
2019-05-12T06:03:22.904Z,1.25
2019-05-12T06:05:56.305Z,1.10
2019-05-12T06:08:33.937Z,0.93
2019-05-12T06:11:14.698Z,1.25
2019-05-12T06:13:53.433Z,1.12
2019-05-12T06:16:28.539Z,1.20
2019-05-12T06:19:07.504Z,1.12
2019-05-12T06:21:46.808Z,1.07
2019-05-12T06:24:24.834Z,1.10
2019-05-12T06:27:14.645Z,1.77
2019-05-12T06:29:43.645Z,2.00
2019-05-12T06:32:20.651Z,0.88
2019-05-12T06:35:01.475Z,1.07
2019-05-12T06:37:34.754Z,1.20
2019-05-12T06:40:14.063Z,1.05
2019-05-12T06:42:55.644Z,1.05
2019-05-12T06:45:36.562Z,1.12
2019-05-12T06:48:09.494Z,1.52
2019-05-12T06:50:50.045Z,1.10
2019-05-12T06:53:30.965Z,1.20
2019-05-12T06:56:09.478Z,1.30
2019-05-12T06:58:47.063Z,1.00
2019-05-12T07:01:26.650Z,1.40
2019-05-12T07:04:06.607Z,1.50
2019-05-12T07:06:44.150Z,1.72
2019-05-12T07:09:24.977Z,1.85
2019-05-12T07:12:06.264Z,2.08
2019-05-12T07:14:40.925Z,1.40
2019-05-12T07:17:49.627Z,1.55
2019-05-12T07:20:24.137Z,1.50
2019-05-12T07:23:03.979Z,2.10
2019-05-12T07:25:44.562Z,1.40
2019-05-12T07:28:23.696Z,1.12
2019-05-12T07:31:03.684Z,1.45
2019-05-12T07:33:41.649Z,1.50
2019-05-12T07:36:19.854Z,1.72
2019-05-12T07:39:03.899Z,1.30
2019-05-12T07:41:50.851Z,1.40
2019-05-12T07:44:24.976Z,1.45
2019-05-12T07:47:03.378Z,1.98
2019-05-12T07:49:41.006Z,2.02
2019-05-12T07:52:18.718Z,2.37
2019-05-12T07:54:56.525Z,2.00
2019-05-12T07:57:40.711Z,2.17
2019-05-12T08:00:21.192Z,2.10
2019-05-12T08:02:54.023Z,1.90
2019-05-12T08:05:34.077Z,2.20
2019-05-12T08:08:14.482Z,1.92
2019-05-12T08:10:55.665Z,1.80
2019-05-12T08:13:31.187Z,2.42
2019-05-12T08:16:14.016Z,2.60
2019-05-12T08:18:53.379Z,2.70
2019-05-12T08:21:36.993Z,2.95
2019-05-12T08:24:14.163Z,2.65
2019-05-12T08:26:59.521Z,2.90
2019-05-12T08:29:30.103Z,3.35
2019-05-12T08:32:09.819Z,3.02
2019-05-12T08:34:43.614Z,3.10
2019-05-12T08:37:20.535Z,3.37
2019-05-12T08:40:04.305Z,3.00
2019-05-12T08:42:40.130Z,3.98
2019-05-12T08:45:27.399Z,3.95
2019-05-12T08:47:59.410Z,4.47
2019-05-12T08:50:39.131Z,4.75
2019-05-12T08:53:21.035Z,4.33
2019-05-12T08:55:55.639Z,4.37
2019-05-12T08:58:39.195Z,5.50
2019-05-12T09:01:06.987Z,5.75
2019-05-12T09:03:46.656Z,5.20
2019-05-12T09:06:23.602Z,6.30
2019-05-12T09:08:58.249Z,9.55
2019-05-12T09:11:38.374Z,6.83
2019-05-12T09:14:18.265Z,8.90
2019-05-12T09:17:02.501Z,10.00
2019-05-12T09:19:39.115Z,6.12
2019-05-12T09:22:20.770Z,5.20
2019-05-12T09:24:58.326Z,16.93
2019-05-12T09:27:39.614Z,11.28
2019-05-12T09:30:15.184Z,8.85
2019-05-12T09:32:56.058Z,6.80
2019-05-12T09:35:38.859Z,7.08
2019-05-12T09:38:20.880Z,7.12
2019-05-12T09:40:52.894Z,7.95
2019-05-12T09:43:26.648Z,7.58
2019-05-12T09:46:04.325Z,7.83
2019-05-12T09:48:45.647Z,8.40
2019-05-12T09:51:20.851Z,8.68
2019-05-12T09:53:58.722Z,9.93
2019-05-12T09:56:35.130Z,9.78
2019-05-12T09:59:18.977Z,8.98
2019-05-12T10:01:55.737Z,9.53
2019-05-12T10:04:33.076Z,9.40
2019-05-12T10:07:14.112Z,9.33
2019-05-12T10:09:55.073Z,8.75
2019-05-12T10:12:36.576Z,8.25
2019-05-12T10:15:18.668Z,11.50
2019-05-12T10:17:54.034Z,9.83
2019-05-12T10:20:34.362Z,9.58
2019-05-12T10:23:10.349Z,13.28
2019-05-12T10:25:50.008Z,14.38
2019-05-12T10:28:30.306Z,11.53
2019-05-12T10:31:06.609Z,10.85
2019-05-12T10:33:48.873Z,10.43
2019-05-12T10:36:24.565Z,11.15
2019-05-12T10:39:04.556Z,10.13
2019-05-12T10:41:43.713Z,11.48
2019-05-12T10:44:19.301Z,11.10
2019-05-12T10:46:56.862Z,11.20
2019-05-12T10:49:35.623Z,11.20
2019-05-12T10:52:10.716Z,11.05
2019-05-12T10:54:51.191Z,11.48
2019-05-12T10:57:26.540Z,11.65
2019-05-12T11:00:05.675Z,11.22
2019-05-12T11:02:43.312Z,12.63
2019-05-12T11:05:25.432Z,13.58
2019-05-12T11:08:05.728Z,12.82
2019-05-12T11:10:39.985Z,13.50
2019-05-12T11:13:21.405Z,13.65
2019-05-12T11:15:59.805Z,13.83
2019-05-12T11:18:37.970Z,13.50
2019-05-12T11:21:17.669Z,12.40
2019-05-12T11:23:55.782Z,13.00
2019-05-12T11:26:35.258Z,13.48
2019-05-12T11:29:14.023Z,13.58
2019-05-12T11:31:53.878Z,14.95
2019-05-12T11:34:33.158Z,14.73
2019-05-12T11:37:13.858Z,14.20
2019-05-12T11:39:49.342Z,15.23
2019-05-12T11:42:27.028Z,14.35
2019-05-12T11:45:08.451Z,14.50
2019-05-12T11:47:49.455Z,15.38
2019-05-12T11:50:30.189Z,14.85
2019-05-12T11:53:07.803Z,14.65
2019-05-12T11:55:44.514Z,15.05
2019-05-12T11:58:23.427Z,15.18
2019-05-12T12:01:06.356Z,14.05
2019-05-12T12:03:43.948Z,14.50
2019-05-12T12:06:21.209Z,13.45
2019-05-12T12:08:57.805Z,13.50
2019-05-12T12:11:35.419Z,12.88
2019-05-12T12:14:13.842Z,12.50
2019-05-12T12:16:52.374Z,11.38
2019-05-12T12:19:37.727Z,11.63
2019-05-12T12:22:08.784Z,12.20
2019-05-12T12:24:46.785Z,11.93
2019-05-12T12:27:28.891Z,11.70
2019-05-12T12:30:18.547Z,11.22
2019-05-12T12:32:45.236Z,12.23
2019-05-12T12:35:23.345Z,11.43
2019-05-12T12:38:04.977Z,12.10
2019-05-12T12:40:44.210Z,11.55
2019-05-12T12:43:24.785Z,11.53
2019-05-12T12:46:21.402Z,11.75
2019-05-12T12:49:00.092Z,11.75
2019-05-12T12:51:34.520Z,11.90
2019-05-12T12:54:16.451Z,11.48
2019-05-12T12:56:54.167Z,12.58
2019-05-12T12:59:29.309Z,13.25
2019-05-12T13:02:09.980Z,12.85
2019-05-12T13:04:50.332Z,12.68
2019-05-12T13:07:28.643Z,12.93
2019-05-12T13:10:10.122Z,13.00
2019-05-12T13:12:45.209Z,12.98
2019-05-12T13:15:29.915Z,13.30
2019-05-12T13:21:04.321Z,12.78
2019-05-12T13:23:45.510Z,14.33
2019-05-12T13:26:23.865Z,14.50
2019-05-12T13:29:20.307Z,14.05
2019-05-12T13:31:57.306Z,13.75
2019-05-12T13:34:34.728Z,13.05
2019-05-12T13:37:29.439Z,13.70
2019-05-12T13:40:04.634Z,12.82
2019-05-12T13:42:43.770Z,12.15
2019-05-12T13:45:18.865Z,11.10
2019-05-12T13:47:54.091Z,10.63
2019-05-12T13:50:30.486Z,10.20
2019-05-12T13:53:10.136Z,10.63
2019-05-12T13:55:49.714Z,10.15
2019-05-12T13:58:34.629Z,9.23
2019-05-12T14:01:16.989Z,8.93
2019-05-12T14:03:53.605Z,9.20
2019-05-12T14:06:48.909Z,9.28
2019-05-12T14:09:24.027Z,9.13
2019-05-12T14:12:04.337Z,9.48
2019-05-12T14:14:43.615Z,10.13
2019-05-12T14:17:30.892Z,10.38
2019-05-12T14:20:09.449Z,10.25
2019-05-12T14:22:44.736Z,10.28
2019-05-12T14:25:30.424Z,10.53
2019-05-12T14:28:05.547Z,10.82
2019-05-12T14:30:49.803Z,11.00
2019-05-12T14:33:21.265Z,10.53
2019-05-12T14:35:56.542Z,10.35
2019-05-12T14:38:34.033Z,10.45
2019-05-12T14:41:12.350Z,10.85
2019-05-12T14:43:47.934Z,9.93
2019-05-12T14:46:27.441Z,10.55
2019-05-12T14:49:08.332Z,10.30
2019-05-12T14:51:44.341Z,10.28
2019-05-12T14:54:23.906Z,10.00
2019-05-12T14:57:03.549Z,9.88
2019-05-12T14:59:41.938Z,10.20
2019-05-12T15:02:24.681Z,9.43
2019-05-12T15:05:00.244Z,9.10
2019-05-12T15:07:44.593Z,9.25
2019-05-12T15:10:19.203Z,9.15
2019-05-12T15:12:54.629Z,8.60
2019-05-12T15:15:33.607Z,8.03
2019-05-12T15:18:13.764Z,8.43
2019-05-12T15:20:53.917Z,8.33
2019-05-12T15:23:32.751Z,7.95
2019-05-12T15:26:17.717Z,7.50
2019-05-12T15:28:47.462Z,6.92
2019-05-12T15:31:25.218Z,6.90
2019-05-12T15:34:03.582Z,7.10
2019-05-12T15:36:43.691Z,6.80
2019-05-12T15:39:20.270Z,6.95
2019-05-12T15:41:56.433Z,6.53
2019-05-12T15:44:37.052Z,6.30
2019-05-12T15:47:14.775Z,6.58
2019-05-12T15:49:50.315Z,6.33
2019-05-12T15:52:29.802Z,6.08
2019-05-12T15:55:07.830Z,6.20
2019-05-12T15:57:48.548Z,6.90
2019-05-12T16:00:28.071Z,6.05
2019-05-12T16:03:06.885Z,5.90
2019-05-12T16:05:44.638Z,6.37
2019-05-12T16:08:24.326Z,6.50
2019-05-12T16:11:01.227Z,6.40
2019-05-12T16:13:38.843Z,6.22
2019-05-12T16:16:14.395Z,6.47
2019-05-12T16:18:50.772Z,6.15
2019-05-12T16:21:25.940Z,6.50
2019-05-12T16:24:10.775Z,6.55
2019-05-12T16:26:45.376Z,6.30
2019-05-12T16:29:19.397Z,6.30
2019-05-12T16:31:55.182Z,6.03
2019-05-12T16:34:36.090Z,6.35
2019-05-12T16:37:14.271Z,7.12
2019-05-12T16:39:49.403Z,7.08
2019-05-12T16:42:28.784Z,7.33
2019-05-12T16:45:14.326Z,7.05
2019-05-12T16:47:49.622Z,7.15
2019-05-12T16:50:27.812Z,7.20
2019-05-12T16:53:01.137Z,6.80
2019-05-12T16:55:45.377Z,7.00
2019-05-12T16:58:17.642Z,7.03
2019-05-12T17:00:56.679Z,6.80
2019-05-12T17:03:37.194Z,6.60
2019-05-12T17:06:16.703Z,6.70
2019-05-12T17:08:54.998Z,6.50
2019-05-12T17:11:31.235Z,7.10
2019-05-12T17:14:09.115Z,6.85
2019-05-12T17:16:48.177Z,6.80
2019-05-12T17:19:26.165Z,6.70
2019-05-12T17:22:04.033Z,6.67
2019-05-12T17:24:39.575Z,6.12
2019-05-12T17:27:23.971Z,6.65
2019-05-12T17:30:04.471Z,6.45
2019-05-12T17:32:56.549Z,6.53
2019-05-12T17:35:20.400Z,6.60
2019-05-12T17:37:54.172Z,6.42
2019-05-12T17:40:33.719Z,5.97
2019-05-12T17:43:11.973Z,6.30
2019-05-12T17:45:50.546Z,6.00
2019-05-12T17:48:25.831Z,6.12
2019-05-12T17:51:03.875Z,5.70
2019-05-12T17:53:43.567Z,6.30
2019-05-12T17:59:04.364Z,6.95
2019-05-12T18:04:26.608Z,6.92
2019-05-12T18:07:12.554Z,7.10
2019-05-12T18:12:44.503Z,7.35
2019-05-12T18:15:16.233Z,6.92
2019-05-12T18:17:53.822Z,7.03
2019-05-12T18:20:37.294Z,7.87
2019-05-12T18:23:10.290Z,7.45
2019-05-12T18:25:47.981Z,7.30
2019-05-12T18:28:29.178Z,7.50
2019-05-12T18:31:06.624Z,7.33
2019-05-12T18:33:52.244Z,7.28
2019-05-12T18:36:26.212Z,7.05
2019-05-12T18:39:09.727Z,7.45
2019-05-12T18:41:43.880Z,7.58
2019-05-12T18:44:28.886Z,7.55
2019-05-12T18:47:04.128Z,7.42
2019-05-12T18:49:42.048Z,7.22
2019-05-12T18:52:16.371Z,6.92
2019-05-12T18:54:57.119Z,7.58
2019-05-12T18:57:39.232Z,7.62
2019-05-12T19:00:21.569Z,7.92
2019-05-12T19:03:08.029Z,8.08
2019-05-12T19:05:40.630Z,7.40
2019-05-12T19:08:23.653Z,7.65
2019-05-12T19:11:14.956Z,7.58
2019-05-12T19:13:43.186Z,7.42
2019-05-12T19:16:20.560Z,6.90
2019-05-12T19:18:55.961Z,7.40
2019-05-12T19:21:33.926Z,7.47
2019-05-12T19:24:17.615Z,7.28
2019-05-12T19:26:54.135Z,7.30
2019-05-12T19:29:38.674Z,7.72
2019-05-12T19:32:14.305Z,7.58
2019-05-12T19:34:51.154Z,7.05
2019-05-12T19:37:29.783Z,7.30
2019-05-12T19:40:12.221Z,7.08
2019-05-12T19:42:43.673Z,6.97
2019-05-12T19:45:21.958Z,6.85
2019-05-12T19:47:57.687Z,6.87
2019-05-12T19:50:35.190Z,6.83
2019-05-12T19:53:13.312Z,7.55
2019-05-12T19:55:53.401Z,7.17
2019-05-12T19:58:33.863Z,7.70
2019-05-12T20:01:10.063Z,7.37
2019-05-12T20:03:50.112Z,7.30
2019-05-12T20:06:26.139Z,6.97
2019-05-12T20:09:08.313Z,7.50
2019-05-12T20:11:40.410Z,6.55
2019-05-12T20:14:21.474Z,6.85
2019-05-12T20:16:56.249Z,6.67
2019-05-12T20:19:34.042Z,7.10
2019-05-12T20:22:09.240Z,6.83
2019-05-12T20:24:48.264Z,7.03
2019-05-12T20:27:24.690Z,7.03
2019-05-12T20:30:06.305Z,6.78
2019-05-12T20:32:43.514Z,6.58
2019-05-12T20:35:22.605Z,6.97
2019-05-12T20:38:04.108Z,7.03
2019-05-12T20:40:43.274Z,7.53
2019-05-12T20:43:24.116Z,6.85
2019-05-12T20:48:44.497Z,6.72
2019-05-12T20:51:21.789Z,6.87
2019-05-12T20:53:59.540Z,7.28
2019-05-12T20:56:36.018Z,8.25
2019-05-12T20:59:21.679Z,7.53
2019-05-12T21:01:52.310Z,7.60
2019-05-12T21:04:31.916Z,7.12
2019-05-12T21:07:07.456Z,7.05
2019-05-12T21:09:46.311Z,6.83
2019-05-12T21:12:24.249Z,5.90
2019-05-12T21:15:13.861Z,6.37
2019-05-12T21:17:43.577Z,6.20
2019-05-12T21:20:20.756Z,6.83
2019-05-12T21:23:00.087Z,6.50
2019-05-12T21:25:37.769Z,6.00
2019-05-12T21:28:19.404Z,6.60
2019-05-12T21:30:58.325Z,6.00
2019-05-12T21:33:39.936Z,5.50
2019-05-12T21:36:17.479Z,5.70
2019-05-12T21:38:54.306Z,6.15
2019-05-12T21:41:34.360Z,5.35
2019-05-12T21:44:11.263Z,5.55
2019-05-12T21:46:57.109Z,5.72
2019-05-12T21:49:25.562Z,5.03
2019-05-12T21:52:04.143Z,5.55
2019-05-12T21:54:43.949Z,4.80
2019-05-12T21:57:27.519Z,4.92
2019-05-12T22:00:00.563Z,5.08
2019-05-12T22:02:38.208Z,4.67
2019-05-12T22:05:21.983Z,4.60
2019-05-12T22:07:52.039Z,4.60
2019-05-12T22:10:30.765Z,4.58
2019-05-12T22:13:14.690Z,4.10
2019-05-12T22:15:51.375Z,4.22
2019-05-12T22:18:29.120Z,4.17
2019-05-12T22:21:07.095Z,3.83
2019-05-12T22:23:51.221Z,4.83
2019-05-12T22:26:21.859Z,4.70
2019-05-12T22:29:04.184Z,4.72
2019-05-12T22:31:44.704Z,4.85
2019-05-12T22:34:15.972Z,4.55
2019-05-12T22:36:55.261Z,4.97
2019-05-12T22:39:27.207Z,4.70
2019-05-12T22:42:03.539Z,4.92
2019-05-12T22:44:39.641Z,5.12
2019-05-12T22:47:17.652Z,5.53
2019-05-12T22:49:56.989Z,5.42
2019-05-12T22:52:33.767Z,5.40
2019-05-12T22:55:08.339Z,6.05
2019-05-12T22:57:44.976Z,9.38
2019-05-12T23:00:24.374Z,5.55
2019-05-12T23:03:07.310Z,5.28
2019-05-12T23:05:40.525Z,5.55
2019-05-12T23:08:18.326Z,6.00
2019-05-12T23:10:56.125Z,5.92
2019-05-12T23:13:41.031Z,6.40
2019-05-12T23:16:10.894Z,6.00
2019-05-12T23:18:46.038Z,5.97
2019-05-12T23:21:21.401Z,6.30
2019-05-12T23:24:03.626Z,6.95
2019-05-12T23:26:42.304Z,6.50
2019-05-12T23:29:20.613Z,6.00
2019-05-12T23:32:00.615Z,5.85
2019-05-12T23:34:37.247Z,6.78
2019-05-12T23:37:15.148Z,6.65
2019-05-12T23:39:53.733Z,6.28
2019-05-12T23:42:31.559Z,6.55
2019-05-12T23:45:10.648Z,6.53
2019-05-12T23:47:48.413Z,6.92
2019-05-12T23:50:29.249Z,7.47
2019-05-12T23:53:07.267Z,7.03
2019-05-12T23:55:44.868Z,7.00
2019-05-12T23:58:23.580Z,6.60
